Time;durP1;ratioP1;P1;durP2;ratioP2;P2;SDS_P1;SDS_P2;PMS_P1;PMS_P2;Temp;Humidity;BMP_temperature;BMP_pressure;BME280_temperature;BME280_humidity;BME280_pressure;Samples;Min_cycle;Max_cycle;Signal;HPM_P1;HPM_P2
2021/09/26 00:00:38;;;;;;;;;;;;;;;16.48;90.62;99283.68;112216;1195;61034;-83
2021/09/26 00:03:07;;;;;;;;;;;;;;;16.50;90.54;99283.86;112287;1196;64697;-83
2021/09/26 00:05:33;;;;;;;;;;;;;;;16.50;90.60;99290.34;112497;1194;60963;-83
2021/09/26 00:08:00;;;;;;;;;;;;;;;16.49;90.52;99290.92;112314;1195;61100;-83
2021/09/26 00:10:26;;;;;;;;;;;;;;;16.41;90.48;99285.36;112306;1195;61036;-84
2021/09/26 00:12:53;;;;;;;;;;;;;;;16.30;90.63;99281.11;112290;1195;60972;-83
2021/09/26 00:15:20;;;;;;;;;;;;;;;16.16;90.79;99283.35;112262;1195;61056;-84
2021/09/26 00:17:48;;;;;;;;;;;;;;;16.06;91.02;99286.02;112265;1195;61105;-83
2021/09/26 00:20:15;;;;;;;;;;;;;;;16.00;91.35;99290.45;112270;1196;61068;-83
2021/09/26 00:22:42;;;;;;;;;;;;;;;15.98;91.57;99293.66;112275;1195;73774;-83
2021/09/26 00:25:10;;;;;;;;;;;;;;;15.99;91.72;99294.11;112247;1195;61009;-84
2021/09/26 00:27:37;;;;;;;;;;;;;;;16.04;91.80;99291.24;112197;1194;62685;-83
2021/09/26 00:30:05;;;;;;;;;;;;;;;16.08;91.88;99287.79;112112;1195;60986;-83
2021/09/26 00:32:31;;;;;;;;;;;;;;;16.13;91.93;99280.80;111966;1196;61039;-83
2021/09/26 00:34:58;;;;;;;;;;;;;;;16.16;91.89;99275.11;112220;1195;64667;-84
2021/09/26 00:37:24;;;;;;;;;;;;;;;16.13;91.94;99276.09;111951;1196;60946;-83
2021/09/26 00:39:51;;;;;;;;;;;;;;;16.08;92.14;99276.72;112216;1194;61132;-83
2021/09/26 00:42:17;;;;;;;;;;;;;;;16.07;92.13;99275.36;112152;1195;60989;-83
2021/09/26 00:44:44;;;;;;;;;;;;;;;16.06;92.24;99278.33;112188;1194;61052;-84
2021/09/26 00:47:10;;;;;;;;;;;;;;;16.07;92.25;99277.88;112216;1195;61065;-83
2021/09/26 00:49:37;;;;;;;;;;;;;;;16.09;92.23;99275.94;111910;1196;61125;-83
2021/09/26 00:52:03;;;;;;;;;;;;;;;16.10;92.25;99273.99;112160;1195;61093;-83
2021/09/26 00:54:30;;;;;;;;;;;;;;;16.12;92.35;99274.01;112235;1195;60969;-83
2021/09/26 00:56:57;;;;;;;;;;;;;;;16.13;92.30;99269.09;112204;1196;61694;-83
2021/09/26 00:59:24;;;;;;;;;;;;;;;16.18;92.54;99266.49;112261;1195;64708;-83
2021/09/26 01:01:50;;;;;;;;;;;;;;;16.24;92.44;99263.84;112165;1196;60947;-83
2021/09/26 01:04:17;;;;;;;;;;;;;;;16.28;92.38;99260.52;112149;1195;62880;-83
2021/09/26 01:06:55;;;;;;;;;;;;;;;16.26;92.06;99264.96;112224;1195;60960;-83
2021/09/26 01:09:24;;;;;;;;;;;;;;;16.20;92.08;99266.85;112214;1196;61020;-83
2021/09/26 01:11:56;;;;;;;;;;;;;;;16.15;91.99;99269.61;112174;1195;66039;-83
2021/09/26 01:14:25;;;;;;;;;;;;;;;16.10;91.81;99268.27;112255;1194;61096;-83
2021/09/26 01:17:10;;;;;;;;;;;;;;;16.04;91.87;99269.17;112217;1195;63803;-83
2021/09/26 01:19:51;;;;;;;;;;;;;;;15.96;92.13;99268.06;112209;1195;61055;-83
2021/09/26 01:22:36;;;;;;;;;;;;;;;15.89;92.16;99267.33;112212;1195;60957;-83
2021/09/26 01:25:03;;;;;;;;;;;;;;;15.81;92.00;99271.23;112227;1195;66042;-85
2021/09/26 01:27:29;;;;;;;;;;;;;;;15.74;92.13;99272.03;112178;1195;61022;-83
2021/09/26 01:30:11;;;;;;;;;;;;;;;15.68;92.37;99270.39;112208;1195;60915;-83
2021/09/26 01:32:41;;;;;;;;;;;;;;;15.63;92.71;99269.86;112218;1195;61048;-83
2021/09/26 01:35:11;;;;;;;;;;;;;;;15.56;92.82;99271.38;112266;1195;61064;-84
2021/09/26 01:37:40;;;;;;;;;;;;;;;15.49;92.93;99271.23;112223;1195;64775;-83
2021/09/26 01:40:07;;;;;;;;;;;;;;;15.41;92.77;99275.98;112194;1195;61052;-84
2021/09/26 01:42:51;;;;;;;;;;;;;;;15.32;92.75;99277.09;112236;1195;65037;-84
2021/09/26 01:45:21;;;;;;;;;;;;;;;15.23;92.71;99275.19;111976;1196;61142;-84
2021/09/26 01:47:53;;;;;;;;;;;;;;;15.14;92.67;99278.56;112196;1195;61046;-85
2021/09/26 01:50:21;;;;;;;;;;;;;;;15.05;92.78;99274.80;112156;1195;66788;-85
2021/09/26 01:52:48;;;;;;;;;;;;;;;14.99;92.91;99275.18;112188;1195;60979;-83
2021/09/26 01:55:15;;;;;;;;;;;;;;;14.92;93.00;99280.36;112272;1195;62549;-83
2021/09/26 01:57:42;;;;;;;;;;;;;;;14.85;92.95;99283.73;112196;1196;61013;-83
2021/09/26 02:00:34;;;;;;;;;;;;;;;14.78;92.95;99287.05;112239;1195;61078;-83
2021/09/26 02:03:01;;;;;;;;;;;;;;;14.69;93.10;99289.82;112315;1195;64690;-83
2021/09/26 02:05:28;;;;;;;;;;;;;;;14.64;93.30;99293.16;112301;1195;60990;-82
2021/09/26 02:07:55;;;;;;;;;;;;;;;14.59;93.20;99297.50;112303;1196;62959;-83
2021/09/26 02:10:23;;;;;;;;;;;;;;;14.50;93.28;99299.73;112272;1194;61365;-83
2021/09/26 02:12:51;;;;;;;;;;;;;;;14.44;93.32;99302.66;112230;1194;61063;-83
2021/09/26 02:15:19;;;;;;;;;;;;;;;14.41;93.38;99298.84;112293;1195;64643;-83
2021/09/26 02:17:47;;;;;;;;;;;;;;;14.37;93.59;99295.95;112237;1195;60998;-83
2021/09/26 02:20:15;;;;;;;;;;;;;;;14.34;93.72;99304.05;112130;1195;62359;-82
2021/09/26 02:22:42;;;;;;;;;;;;;;;14.29;93.71;99306.17;112140;1195;61034;-83
2021/09/26 02:25:09;;;;;;;;;;;;;;;14.23;93.84;99306.45;112213;1195;60982;-83
2021/09/26 02:27:36;;;;;;;;;;;;;;;14.18;93.98;99307.93;112143;1195;64826;-83
2021/09/26 02:30:04;;;;;;;;;;;;;;;14.16;94.25;99308.23;112116;1195;60991;-83
2021/09/26 02:32:30;;;;;;;;;;;;;;;14.12;94.21;99310.34;112154;1195;64016;-83
2021/09/26 02:34:57;;;;;;;;;;;;;;;14.04;94.32;99317.73;112162;1195;61466;-83
2021/09/26 02:37:24;;;;;;;;;;;;;;;14.00;94.57;99324.69;112254;1195;60960;-83
2021/09/26 02:39:51;;;;;;;;;;;;;;;13.97;94.61;99320.83;112230;1195;66109;-83
2021/09/26 02:42:36;;;;;;;;;;;;;;;13.96;94.95;99318.52;112154;1196;61046;-83
2021/09/26 02:45:22;;;;;;;;;;;;;;;13.98;95.05;99316.61;112224;1195;64998;-83
2021/09/26 02:47:51;;;;;;;;;;;;;;;14.00;95.23;99319.16;112122;1195;61025;-83
2021/09/26 02:50:19;;;;;;;;;;;;;;;13.99;95.20;99321.73;112150;1195;60983;-83
2021/09/26 02:52:46;;;;;;;;;;;;;;;13.95;94.90;99322.59;112185;1195;64459;-83
2021/09/26 02:55:14;;;;;;;;;;;;;;;13.88;94.83;99319.52;112167;1195;61023;-83
2021/09/26 02:57:41;;;;;;;;;;;;;;;13.82;94.86;99316.39;112162;1195;64022;-83
2021/09/26 03:00:09;;;;;;;;;;;;;;;13.76;94.60;99315.77;112096;1195;61466;-83
2021/09/26 03:02:36;;;;;;;;;;;;;;;13.69;94.71;99316.30;112182;1195;61087;-83
2021/09/26 03:05:03;;;;;;;;;;;;;;;13.61;94.64;99314.75;112144;1196;67010;-83
2021/09/26 03:07:29;;;;;;;;;;;;;;;13.54;94.52;99318.66;112160;1195;61071;-83
2021/09/26 03:09:56;;;;;;;;;;;;;;;13.46;94.43;99321.04;112113;1195;60994;-83
2021/09/26 03:12:23;;;;;;;;;;;;;;;13.38;94.44;99321.41;112183;1195;61058;-83
2021/09/26 03:14:50;;;;;;;;;;;;;;;13.32;94.38;99318.70;112138;1196;61011;-83
2021/09/26 03:17:18;;;;;;;;;;;;;;;13.27;94.39;99315.48;112106;1195;65927;-83
2021/09/26 03:19:44;;;;;;;;;;;;;;;13.25;94.55;99314.52;112209;1196;61031;-83
2021/09/26 03:22:11;;;;;;;;;;;;;;;13.23;94.52;99317.54;112133;1195;62474;-83
2021/09/26 03:24:38;;;;;;;;;;;;;;;13.18;94.44;99313.02;112107;1195;61058;-83
2021/09/26 03:27:09;;;;;;;;;;;;;;;13.13;94.25;99315.40;112179;1195;61053;-83
2021/09/26 03:29:37;;;;;;;;;;;;;;;13.06;94.27;99317.52;112147;1195;65689;-83
2021/09/26 03:32:04;;;;;;;;;;;;;;;12.98;94.36;99319.64;112206;1195;60816;-83
2021/09/26 03:34:30;;;;;;;;;;;;;;;12.91;94.29;99320.54;112123;1195;62472;-83
2021/09/26 03:36:57;;;;;;;;;;;;;;;12.87;94.38;99322.08;112091;1195;60983;-83
2021/09/26 03:39:23;;;;;;;;;;;;;;;12.81;94.19;99322.48;112158;1195;60940;-83
2021/09/26 03:41:50;;;;;;;;;;;;;;;12.74;94.14;99326.86;112111;1195;60970;-83
2021/09/26 03:44:16;;;;;;;;;;;;;;;12.67;94.06;99328.44;112208;1195;61141;-83
2021/09/26 03:46:43;;;;;;;;;;;;;;;12.60;94.08;99332.02;112169;1195;61064;-83
2021/09/26 03:49:09;;;;;;;;;;;;;;;12.52;94.17;99332.14;111959;1195;61112;-83
2021/09/26 03:51:36;;;;;;;;;;;;;;;12.47;94.37;99336.11;112161;1195;61418;-81
2021/09/26 03:54:02;;;;;;;;;;;;;;;12.40;94.33;99331.23;112129;1195;61036;-83
2021/09/26 03:56:29;;;;;;;;;;;;;;;12.33;94.41;99332.23;112168;1195;61125;-83
2021/09/26 03:58:55;;;;;;;;;;;;;;;12.27;94.50;99333.56;112088;1196;61021;-83
2021/09/26 04:01:22;;;;;;;;;;;;;;;12.21;94.53;99332.57;112182;1195;61056;-83
2021/09/26 04:03:48;;;;;;;;;;;;;;;12.14;94.62;99335.50;112183;1195;61051;-83
2021/09/26 04:06:15;;;;;;;;;;;;;;;12.09;94.79;99337.44;112124;1195;61011;-83
2021/09/26 04:08:41;;;;;;;;;;;;;;;12.05;95.10;99333.58;112164;1195;61089;-83
2021/09/26 04:11:09;;;;;;;;;;;;;;;12.02;95.24;99334.48;112087;1195;61187;-83
2021/09/26 04:13:36;;;;;;;;;;;;;;;12.00;95.42;99333.80;112125;1194;61059;-82
2021/09/26 04:16:03;;;;;;;;;;;;;;;11.98;95.72;99331.22;112186;1195;60969;-83
2021/09/26 04:18:29;;;;;;;;;;;;;;;12.00;95.88;99333.77;112166;1195;65042;-82
2021/09/26 04:20:56;;;;;;;;;;;;;;;12.00;95.78;99335.73;112145;1195;61066;-83
2021/09/26 04:23:22;;;;;;;;;;;;;;;11.97;95.66;99338.77;112187;1195;60966;-82
2021/09/26 04:25:49;;;;;;;;;;;;;;;11.93;95.49;99340.64;112225;1195;61042;-82
2021/09/26 04:28:15;;;;;;;;;;;;;;;11.90;95.68;99340.16;112142;1195;61059;-83
2021/09/26 04:30:41;;;;;;;;;;;;;;;11.87;95.77;99339.28;112130;1195;61100;-82
2021/09/26 04:33:08;;;;;;;;;;;;;;;11.84;95.54;99343.35;112200;1195;75269;-83
2021/09/26 04:35:35;;;;;;;;;;;;;;;11.81;95.49;99344.59;112103;1195;61068;-84
2021/09/26 08:03:03;;;;;;;;;;;;;;;17.91;90.46;99402.96;112152;1195;61043;-84
2021/09/26 08:05:29;;;;;;;;;;;;;;;18.04;90.35;99401.11;112055;1195;66063;-84
2021/09/26 08:07:56;;;;;;;;;;;;;;;18.15;90.02;99402.20;112166;1195;60924;-83
2021/09/26 08:10:22;;;;;;;;;;;;;;;18.26;89.92;99400.13;112005;1195;61441;-83
2021/09/26 08:12:49;;;;;;;;;;;;;;;18.35;89.41;99398.06;112029;1196;61036;-84
2021/09/26 08:15:16;;;;;;;;;;;;;;;18.44;89.17;99400.80;112095;1195;61059;-84
2021/09/26 08:17:43;;;;;;;;;;;;;;;18.53;88.84;99401.06;112068;1195;64354;-85
2021/09/26 08:20:10;;;;;;;;;;;;;;;18.63;88.60;99409.68;112091;1195;61075;-84
2021/09/26 08:22:37;;;;;;;;;;;;;;;18.70;88.00;99412.98;112092;1195;64038;-84
2021/09/26 08:25:06;;;;;;;;;;;;;;;18.74;87.76;99412.81;112116;1195;61062;-84
2021/09/26 08:27:33;;;;;;;;;;;;;;;18.82;87.79;99409.66;112102;1195;61061;-84
2021/09/26 08:30:00;;;;;;;;;;;;;;;18.91;87.15;99411.73;112083;1196;65793;-84
2021/09/26 08:32:26;;;;;;;;;;;;;;;18.95;86.82;99412.05;112137;1195;61064;-84
2021/09/26 08:34:53;;;;;;;;;;;;;;;19.03;86.99;99411.09;112067;1196;63957;-84
2021/09/26 08:37:20;;;;;;;;;;;;;;;19.14;87.10;99408.81;111902;1195;61148;-84
2021/09/26 08:39:47;;;;;;;;;;;;;;;19.24;86.56;99409.83;112111;1195;61042;-84
2021/09/26 08:42:16;;;;;;;;;;;;;;;19.32;86.27;99408.52;112109;1195;66060;-83
2021/09/26 08:44:43;;;;;;;;;;;;;;;19.42;86.24;99409.23;112032;1196;61082;-84
2021/09/26 08:47:10;;;;;;;;;;;;;;;19.52;85.98;99409.31;112090;1195;65332;-85
2021/09/26 08:49:36;;;;;;;;;;;;;;;19.60;85.42;99414.07;112129;1195;61036;-83
2021/09/26 08:52:03;;;;;;;;;;;;;;;19.67;85.01;99416.45;112083;1195;61078;-84
2021/09/26 08:54:29;;;;;;;;;;;;;;;19.71;84.50;99416.99;112109;1195;66854;-85
2021/09/26 08:56:56;;;;;;;;;;;;;;;19.74;84.05;99411.84;112150;1195;61039;-84
2021/09/26 08:59:23;;;;;;;;;;;;;;;19.77;83.35;99408.47;112096;1196;62813;-83
2021/09/26 09:01:50;;;;;;;;;;;;;;;19.81;83.05;99409.16;112121;1195;61050;-84
2021/09/26 09:04:17;;;;;;;;;;;;;;;19.88;83.04;99413.36;112073;1195;60984;-85
2021/09/26 09:06:47;;;;;;;;;;;;;;;19.97;83.17;99418.25;112096;1195;65687;-83
2021/09/26 09:09:16;;;;;;;;;;;;;;;20.08;82.60;99413.56;111992;1195;61076;-83
2021/09/26 09:12:00;;;;;;;;;;;;;;;20.12;81.25;99410.84;112175;1195;64029;-83
2021/09/26 09:14:46;;;;;;;;;;;;;;;20.14;81.16;99407.75;112120;1195;61004;-83
2021/09/26 09:17:24;;;;;;;;;;;;;;;20.19;80.63;99405.43;112064;1195;61042;-84
2021/09/26 09:20:11;;;;;;;;;;;;;;;20.22;80.30;99400.24;112020;1196;66992;-84
2021/09/26 09:22:38;;;;;;;;;;;;;;;20.31;80.62;99399.85;112089;1196;61011;-82
2021/09/26 09:25:05;;;;;;;;;;;;;;;20.43;80.45;99403.21;112101;1195;64032;-82
2021/09/26 09:27:32;;;;;;;;;;;;;;;20.56;80.67;99401.09;112151;1195;61176;-83
2021/09/26 09:30:01;;;;;;;;;;;;;;;20.71;80.54;99395.64;112129;1193;60969;-83
2021/09/26 09:32:29;;;;;;;;;;;;;;;20.81;79.53;99394.04;112419;1195;66065;-83
2021/09/26 09:34:56;;;;;;;;;;;;;;;20.86;78.50;99391.97;112088;1195;61104;-83
2021/09/26 09:37:25;;;;;;;;;;;;;;;20.89;78.54;99388.00;111962;1195;63050;-82
2021/09/26 09:40:04;;;;;;;;;;;;;;;20.96;78.26;99389.40;112067;1195;61061;-83
2021/09/26 09:42:40;;;;;;;;;;;;;;;21.03;77.70;99391.16;112060;1195;61177;-83
2021/09/26 09:45:17;;;;;;;;;;;;;;;21.10;77.58;99389.38;112102;1195;65789;-84
2021/09/26 09:48:02;;;;;;;;;;;;;;;21.22;77.13;99389.09;112059;1195;61174;-84
2021/09/26 09:50:46;;;;;;;;;;;;;;;21.30;76.24;99392.20;112074;1195;64996;-83
2021/09/26 09:53:31;;;;;;;;;;;;;;;21.32;75.68;99391.12;112167;1195;61046;-82
2021/09/26 09:56:00;;;;;;;;;;;;;;;21.38;75.78;99390.09;111973;1195;61021;-81
2021/09/26 09:58:48;;;;;;;;;;;;;;;21.45;75.99;99386.46;112106;1195;66038;-82
2021/09/26 10:01:24;;;;;;;;;;;;;;;21.59;75.32;99385.38;112016;1195;61001;-84
2021/09/26 10:03:51;;;;;;;;;;;;;;;21.71;74.92;99386.13;112180;1196;62617;-83
2021/09/26 10:06:20;;;;;;;;;;;;;;;21.79;74.63;99379.47;112033;1195;61048;-84
2021/09/26 10:08:48;;;;;;;;;;;;;;;21.86;74.34;99379.39;112159;1195;60986;-84
2021/09/26 10:11:15;;;;;;;;;;;;;;;21.86;73.36;99379.19;112107;1196;66074;-83
2021/09/26 10:13:42;;;;;;;;;;;;;;;21.84;73.11;99381.25;111916;1196;61078;-85
2021/09/26 10:16:10;;;;;;;;;;;;;;;21.85;73.09;99380.75;112139;1196;62476;-83
2021/09/26 10:18:38;;;;;;;;;;;;;;;21.89;72.93;99377.20;112121;1195;61023;-84
2021/09/26 10:21:06;;;;;;;;;;;;;;;21.98;73.01;99374.33;111960;1195;61167;-84
2021/09/26 10:23:34;;;;;;;;;;;;;;;22.08;72.49;99369.27;112132;1195;66018;-85
2021/09/26 10:26:01;;;;;;;;;;;;;;;22.18;72.92;99366.50;112105;1195;61651;-87
2021/09/26 10:28:29;;;;;;;;;;;;;;;22.29;72.92;99366.40;112176;1195;63933;-87
2021/09/26 10:30:57;;;;;;;;;;;;;;;22.35;72.08;99366.98;112195;1195;61134;-84
2021/09/26 10:33:25;;;;;;;;;;;;;;;22.35;71.92;99365.19;112143;1195;61068;-84
2021/09/26 10:35:55;;;;;;;;;;;;;;;22.38;71.97;99362.94;112187;1196;66009;-86
2021/09/26 10:38:23;;;;;;;;;;;;;;;22.39;71.34;99365.89;112167;1195;61026;-84
2021/09/26 10:40:49;;;;;;;;;;;;;;;22.38;71.08;99367.27;112097;1196;64016;-85
2021/09/26 10:43:22;;;;;;;;;;;;;;;22.40;71.04;99371.20;112152;1195;60955;-85
2021/09/26 10:45:49;;;;;;;;;;;;;;;22.51;71.63;99372.55;112156;1195;61059;-85
2021/09/26 10:48:16;;;;;;;;;;;;;;;22.63;71.59;99371.75;112128;1195;66012;-84
2021/09/26 10:50:43;;;;;;;;;;;;;;;22.72;71.41;99363.98;112154;1195;60956;-84
2021/09/26 10:53:13;;;;;;;;;;;;;;;22.80;71.28;99362.05;112124;1195;63947;-83
2021/09/26 10:55:41;;;;;;;;;;;;;;;22.86;70.77;99363.16;112156;1195;61064;-83
2021/09/26 10:58:10;;;;;;;;;;;;;;;22.90;70.23;99367.78;112124;1196;60997;-83
2021/09/26 11:00:41;;;;;;;;;;;;;;;22.86;69.36;99360.11;112190;1196;65899;-83
2021/09/26 11:03:12;;;;;;;;;;;;;;;22.77;68.46;99356.55;112165;1196;61030;-85
2021/09/26 11:05:44;;;;;;;;;;;;;;;22.73;68.89;99354.45;112207;1195;64039;-83
2021/09/26 11:08:12;;;;;;;;;;;;;;;22.76;68.21;99353.98;112159;1195;61071;-83
2021/09/26 11:10:43;;;;;;;;;;;;;;;22.73;67.71;99355.55;112166;1196;61008;-85
2021/09/26 11:13:15;;;;;;;;;;;;;;;22.74;67.64;99356.88;112204;1196;65903;-84
2021/09/26 11:16:01;;;;;;;;;;;;;;;22.76;67.47;99355.07;112232;1195;61068;-83
2021/09/26 11:18:51;;;;;;;;;;;;;;;22.77;67.26;99349.15;112172;1196;63759;-84
2021/09/26 11:21:37;;;;;;;;;;;;;;;22.78;66.77;99345.67;112084;1195;61077;-85
2021/09/26 11:24:07;;;;;;;;;;;;;;;22.77;66.26;99342.36;112201;1195;61033;-84
2021/09/26 11:26:52;;;;;;;;;;;;;;;22.77;66.52;99343.88;112153;1196;65679;-84
2021/09/26 11:29:19;;;;;;;;;;;;;;;22.81;67.38;99338.95;112137;1196;61062;-84
2021/09/26 11:31:47;;;;;;;;;;;;;;;22.87;67.73;99339.11;112123;1195;64011;-84
2021/09/26 11:34:34;;;;;;;;;;;;;;;22.94;68.01;99335.02;112147;1196;61184;-84
2021/09/26 11:37:02;;;;;;;;;;;;;;;22.98;67.39;99330.89;112166;1195;60982;-83
2021/09/26 11:39:30;;;;;;;;;;;;;;;23.00;66.96;99332.48;112178;1195;66042;-83
2021/09/26 11:41:57;;;;;;;;;;;;;;;23.01;66.95;99333.23;112177;1195;61068;-84
2021/09/26 11:44:25;;;;;;;;;;;;;;;23.06;67.29;99328.11;112202;1195;62663;-84
2021/09/26 11:46:54;;;;;;;;;;;;;;;23.13;67.37;99331.90;112172;1195;61083;-84
2021/09/26 11:49:22;;;;;;;;;;;;;;;23.17;66.66;99328.72;112187;1196;61065;-83
2021/09/26 11:51:52;;;;;;;;;;;;;;;23.18;66.80;99328.38;112004;1195;64691;-83
2021/09/26 11:54:19;;;;;;;;;;;;;;;23.20;67.43;99326.71;112071;1195;61176;-86
2021/09/26 11:56:46;;;;;;;;;;;;;;;23.17;67.19;99328.29;112216;1196;63892;-83
2021/09/26 11:59:14;;;;;;;;;;;;;;;23.20;67.01;99327.09;112112;1194;61184;-83
2021/09/26 12:01:42;;;;;;;;;;;;;;;23.23;66.56;99319.70;111942;1195;61069;-84
2021/09/26 12:04:18;;;;;;;;;;;;;;;23.24;66.29;99320.78;112221;1195;66033;-83
2021/09/26 12:06:56;;;;;;;;;;;;;;;23.28;66.20;99318.55;112193;1196;61053;-83
2021/09/26 12:09:44;;;;;;;;;;;;;;;23.33;66.35;99314.73;112225;1195;62350;-84
2021/09/26 12:12:16;;;;;;;;;;;;;;;23.38;66.42;99308.35;112210;1195;61067;-84
2021/09/26 12:14:46;;;;;;;;;;;;;;;23.40;66.19;99306.26;112248;1196;61053;-84
2021/09/26 12:17:14;;;;;;;;;;;;;;;23.46;66.06;99304.16;112172;1195;64776;-85
2021/09/26 12:19:41;;;;;;;;;;;;;;;23.49;65.81;99298.36;112149;1196;61064;-83
2021/09/26 12:22:12;;;;;;;;;;;;;;;23.52;65.90;99302.18;111969;1196;62777;-84
2021/09/26 12:24:42;;;;;;;;;;;;;;;23.52;65.05;99301.64;112184;1195;61040;-83
2021/09/26 12:27:17;;;;;;;;;;;;;;;23.49;65.11;99302.35;112148;1195;61058;-84
2021/09/26 12:29:54;;;;;;;;;;;;;;;23.50;65.27;99299.52;111931;1196;65672;-83
2021/09/26 12:32:23;;;;;;;;;;;;;;;23.54;65.08;99297.61;112204;1197;61040;-83
2021/09/26 12:34:50;;;;;;;;;;;;;;;23.56;64.35;99294.67;112199;1196;65030;-84
2021/09/26 12:37:18;;;;;;;;;;;;;;;23.54;63.71;99288.57;112176;1196;61034;-83
2021/09/26 12:39:46;;;;;;;;;;;;;;;23.55;64.09;99292.98;112234;1195;60954;-84
2021/09/26 12:42:20;;;;;;;;;;;;;;;23.59;64.31;99291.90;112218;1196;64659;-84
2021/09/26 12:44:47;;;;;;;;;;;;;;;23.64;64.23;99293.17;112202;1196;61067;-84
2021/09/26 12:47:16;;;;;;;;;;;;;;;23.68;64.10;99290.14;112198;1194;62329;-84
2021/09/26 12:49:43;;;;;;;;;;;;;;;23.73;63.66;99288.04;112203;1195;61052;-83
2021/09/26 12:52:13;;;;;;;;;;;;;;;23.73;63.05;99288.53;112223;1196;60954;-84
2021/09/26 12:54:44;;;;;;;;;;;;;;;23.71;62.95;99289.29;112171;1196;65778;-83
2021/09/26 12:57:13;;;;;;;;;;;;;;;23.69;63.07;99284.60;112207;1195;61039;-82
2021/09/26 12:59:41;;;;;;;;;;;;;;;23.74;63.21;99278.95;112165;1196;64728;-83
2021/09/26 13:02:19;;;;;;;;;;;;;;;23.78;62.89;99282.09;112186;1196;60981;-84
2021/09/26 13:04:57;;;;;;;;;;;;;;;23.81;62.74;99281.42;112198;1195;61059;-83
2021/09/26 13:07:25;;;;;;;;;;;;;;;23.83;62.51;99279.63;112191;1195;67017;-84
2021/09/26 13:09:56;;;;;;;;;;;;;;;23.90;62.48;99275.44;112209;1195;61180;-83
2021/09/26 13:12:32;;;;;;;;;;;;;;;23.95;62.26;99273.19;112199;1196;64072;-84
2021/09/26 13:15:22;;;;;;;;;;;;;;;24.02;62.44;99272.92;112220;1195;60989;-83
2021/09/26 13:17:54;;;;;;;;;;;;;;;24.13;62.84;99268.51;112119;1195;60920;-84
2021/09/26 13:20:27;;;;;;;;;;;;;;;24.18;62.38;99264.80;112209;1196;66045;-83
2021/09/26 13:23:12;;;;;;;;;;;;;;;24.12;61.45;99265.73;112156;1195;60939;-83
2021/09/26 13:25:39;;;;;;;;;;;;;;;24.07;61.60;99266.86;112180;1196;65414;-86
2021/09/26 13:28:07;;;;;;;;;;;;;;;24.04;61.27;99270.66;112227;1195;61170;-83
2021/09/26 13:30:38;;;;;;;;;;;;;;;24.02;61.24;99271.68;112159;1196;61066;-83
2021/09/26 13:33:11;;;;;;;;;;;;;;;24.02;61.47;99270.71;112205;1197;64781;-84
2021/09/26 13:35:39;;;;;;;;;;;;;;;24.05;61.89;99270.97;112227;1195;60942;-84
2021/09/26 13:38:13;;;;;;;;;;;;;;;24.06;62.28;99265.30;111921;1196;62748;-84
2021/09/26 13:40:42;;;;;;;;;;;;;;;24.11;62.41;99264.08;112191;1195;61090;-85
2021/09/26 13:43:26;;;;;;;;;;;;;;;24.13;62.43;99260.52;112244;1195;61184;-84
2021/09/26 13:45:54;;;;;;;;;;;;;;;24.10;62.22;99258.88;112208;1195;65911;-82
2021/09/26 13:48:20;;;;;;;;;;;;;;;24.03;62.33;99254.04;112222;1195;60985;-82
2021/09/26 13:50:48;;;;;;;;;;;;;;;24.00;62.59;99253.71;111959;1196;62756;-82
2021/09/26 13:53:16;;;;;;;;;;;;;;;23.96;62.19;99256.41;112254;1196;61058;-82
2021/09/26 13:55:43;;;;;;;;;;;;;;;23.89;62.00;99258.91;112205;1194;60915;-81
2021/09/26 13:58:10;;;;;;;;;;;;;;;23.78;62.14;99257.25;112215;1196;66015;-84
2021/09/26 14:00:36;;;;;;;;;;;;;;;23.69;62.66;99255.80;112278;1195;61053;-82
2021/09/26 14:03:03;;;;;;;;;;;;;;;23.59;62.97;99255.41;112247;1196;65212;-82
2021/09/26 14:05:30;;;;;;;;;;;;;;;23.51;63.36;99253.87;112223;1196;61073;-83
2021/09/26 14:07:58;;;;;;;;;;;;;;;23.45;63.77;99250.73;112254;1196;61023;-82
2021/09/26 14:10:24;;;;;;;;;;;;;;;23.38;63.82;99251.27;112202;1195;66998;-84
2021/09/26 14:12:51;;;;;;;;;;;;;;;23.29;63.95;99246.86;112232;1196;61071;-82
2021/09/26 14:15:17;;;;;;;;;;;;;;;23.21;64.33;99243.40;112235;1196;62796;-84
2021/09/26 14:17:44;;;;;;;;;;;;;;;23.14;64.63;99246.60;112180;1195;60960;-83
2021/09/26 14:20:13;;;;;;;;;;;;;;;23.05;64.74;99246.19;112224;1196;61049;-83
2021/09/26 14:22:39;;;;;;;;;;;;;;;22.92;64.52;99242.86;112217;1195;64378;-82
2021/09/26 14:25:07;;;;;;;;;;;;;;;22.83;64.73;99244.08;112227;1195;61035;-84
2021/09/26 14:27:34;;;;;;;;;;;;;;;22.76;65.23;99244.55;112200;1196;63687;-84
2021/09/26 14:30:02;;;;;;;;;;;;;;;22.70;65.38;99244.90;112227;1195;61065;-84
2021/09/26 14:32:29;;;;;;;;;;;;;;;22.65;65.89;99244.37;112251;1196;61109;-84
2021/09/26 14:34:55;;;;;;;;;;;;;;;22.59;65.80;99239.90;112194;1196;66995;-83
2021/09/26 14:37:22;;;;;;;;;;;;;;;22.55;65.77;99237.13;112227;1195;60954;-84
2021/09/26 14:39:48;;;;;;;;;;;;;;;22.52;65.94;99236.42;112229;1196;64018;-84
2021/09/26 14:42:15;;;;;;;;;;;;;;;22.49;66.34;99239.04;112208;1195;61071;-83
2021/09/26 14:44:42;;;;;;;;;;;;;;;22.46;66.49;99237.59;112216;1194;61046;-84
2021/09/26 14:47:08;;;;;;;;;;;;;;;22.45;66.86;99236.17;112227;1194;66050;-84
2021/09/26 14:49:35;;;;;;;;;;;;;;;22.44;66.90;99233.38;112218;1196;61019;-83
2021/09/26 14:52:02;;;;;;;;;;;;;;;22.45;66.92;99230.89;112232;1195;62393;-82
2021/09/26 14:54:30;;;;;;;;;;;;;;;22.45;66.94;99230.08;111924;1196;61044;-83
2021/09/26 14:56:58;;;;;;;;;;;;;;;22.46;66.96;99228.55;111938;1197;61071;-83
2021/09/26 14:59:25;;;;;;;;;;;;;;;22.48;67.18;99229.74;111912;1196;66158;-83
2021/09/26 15:05:19;;;;;;;;;;;;;;;22.49;67.28;99227.30;112947;1198;62605;-87
2021/09/26 15:07:46;;;;;;;;;;;;;;;22.49;67.37;99228.92;113058;1177;61062;-91
2021/09/26 15:10:16;;;;;;;;;;;;;;;22.48;67.38;99224.92;112939;1193;61080;-93
2021/09/26 15:12:43;;;;;;;;;;;;;;;22.45;67.19;99225.46;112482;1194;67624;-96
2021/09/26 15:15:12;;;;;;;;;;;;;;;22.41;67.26;99225.75;112541;1193;61052;-92
2021/09/26 15:17:39;;;;;;;;;;;;;;;22.36;67.45;99229.49;112365;1195;64162;-94
2021/09/26 15:20:07;;;;;;;;;;;;;;;22.32;67.77;99232.66;112270;1193;61123;-90
2021/09/26 15:22:34;;;;;;;;;;;;;;;22.27;67.89;99235.38;112378;1193;61051;-89
2021/09/26 15:25:02;;;;;;;;;;;;;;;22.22;68.16;99233.13;112291;1196;64483;-89
2021/09/26 15:27:29;;;;;;;;;;;;;;;22.15;68.34;99230.79;112386;1193;61099;-88
2021/09/26 15:29:56;;;;;;;;;;;;;;;22.08;68.63;99228.27;113169;1193;62498;-92
2021/09/26 15:32:23;;;;;;;;;;;;;;;22.01;68.60;99229.61;112513;1193;61261;-92
2021/09/26 15:34:57;;;;;;;;;;;;;;;21.95;68.70;99225.43;113395;1193;60946;-96
2021/09/26 15:37:24;;;;;;;;;;;;;;;21.87;68.96;99217.16;112734;1195;66181;-85
2021/09/26 15:39:51;;;;;;;;;;;;;;;21.81;69.05;99216.76;112328;1193;61007;-85
2021/09/26 15:42:19;;;;;;;;;;;;;;;21.77;69.32;99218.71;112279;1193;62616;-85
2021/09/26 15:44:46;;;;;;;;;;;;;;;21.72;69.34;99221.42;112300;1193;61089;-84
2021/09/26 15:47:14;;;;;;;;;;;;;;;21.65;69.52;99220.52;112301;1193;61061;-85
2021/09/26 15:49:41;;;;;;;;;;;;;;;21.59;69.74;99220.60;112312;1193;65020;-85
2021/09/26 15:52:08;;;;;;;;;;;;;;;21.54;69.88;99218.98;112281;1193;61032;-86
2021/09/26 15:54:35;;;;;;;;;;;;;;;21.49;70.08;99218.86;112285;1193;62338;-86
2021/09/26 15:57:02;;;;;;;;;;;;;;;21.43;70.29;99220.24;112279;1193;60991;-86
2021/09/26 15:59:29;;;;;;;;;;;;;;;21.37;70.49;99216.14;112304;1193;61033;-86
2021/09/26 16:01:55;;;;;;;;;;;;;;;21.31;70.65;99214.46;112313;1193;60949;-85
2021/09/26 16:04:22;;;;;;;;;;;;;;;21.23;70.77;99212.78;112293;1193;61042;-86
2021/09/26 16:06:52;;;;;;;;;;;;;;;21.14;70.90;99216.66;112343;1193;63994;-84
2021/09/26 16:09:22;;;;;;;;;;;;;;;21.06;71.07;99220.39;112212;1193;61020;-85
2021/09/26 16:11:49;;;;;;;;;;;;;;;20.96;71.28;99224.49;112309;1193;61006;-85
2021/09/26 16:14:17;;;;;;;;;;;;;;;20.86;71.50;99223.63;112295;1193;66065;-85